createdAt,value
2019-05-16T00:00:50.605Z,8.70
2019-05-16T00:03:18.657Z,8.70
2019-05-16T00:05:51.473Z,8.69
2019-05-16T00:08:13.271Z,8.67
2019-05-16T00:10:39.424Z,8.66
2019-05-16T00:13:05.489Z,8.67
2019-05-16T00:15:31.603Z,8.68
2019-05-16T00:17:58.475Z,8.69
2019-05-16T00:20:24.645Z,8.71
2019-05-16T00:22:50.694Z,8.71
2019-05-16T00:25:17.995Z,8.72
2019-05-16T00:27:44.208Z,8.71
2019-05-16T00:30:11.052Z,8.69
2019-05-16T00:32:39.139Z,8.68
2019-05-16T00:35:05.575Z,8.69
2019-05-16T00:37:31.722Z,8.69
2019-05-16T00:39:58.851Z,8.68
2019-05-16T00:42:25.075Z,8.65
2019-05-16T00:44:51.152Z,8.64
2019-05-16T00:47:17.991Z,8.64
2019-05-16T00:49:44.134Z,8.63
2019-05-16T00:52:10.172Z,8.64
2019-05-16T00:54:38.424Z,8.65
2019-05-16T00:57:04.731Z,8.66
2019-05-16T00:59:31.150Z,8.64
2019-05-16T01:01:58.747Z,8.62
2019-05-16T01:04:24.931Z,8.61
2019-05-16T01:06:51.077Z,8.59
2019-05-16T01:09:18.782Z,8.57
2019-05-16T01:11:48.690Z,8.57
2019-05-16T01:14:14.858Z,8.55
2019-05-16T01:16:41.051Z,8.55
2019-05-16T01:19:08.544Z,8.55
2019-05-16T01:21:34.675Z,8.55
2019-05-16T01:24:00.686Z,8.53
2019-05-16T01:26:28.586Z,8.51
2019-05-16T01:28:55.134Z,8.44
2019-05-16T01:31:21.250Z,8.40
2019-05-16T01:33:47.841Z,8.36
2019-05-16T01:36:14.241Z,8.32
2019-05-16T01:38:40.280Z,8.29
2019-05-16T01:41:08.625Z,8.28
2019-05-16T01:43:34.852Z,8.27
2019-05-16T01:46:00.865Z,8.25
2019-05-16T01:48:29.234Z,8.23
2019-05-16T01:50:54.870Z,8.21
2019-05-16T01:53:20.880Z,8.17
2019-05-16T01:55:49.154Z,8.16
2019-05-16T01:58:20.008Z,8.15
2019-05-16T02:00:58.736Z,8.13
2019-05-16T02:03:15.872Z,8.10
2019-05-16T02:05:42.266Z,8.08
2019-05-16T02:08:08.870Z,8.09
2019-05-16T02:10:37.734Z,8.07
2019-05-16T02:13:03.790Z,8.02
2019-05-16T02:15:29.959Z,7.99
2019-05-16T02:17:58.588Z,7.98
2019-05-16T02:20:24.423Z,7.95
2019-05-16T02:22:50.461Z,7.93
2019-05-16T02:25:18.548Z,7.89
2019-05-16T02:27:45.030Z,7.88
2019-05-16T02:30:12.749Z,7.87
2019-05-16T02:32:41.776Z,7.85
2019-05-16T02:35:07.408Z,7.83
2019-05-16T02:37:34.956Z,7.82
2019-05-16T02:40:03.203Z,7.82
2019-05-16T02:42:30.951Z,7.73
2019-05-16T02:44:57.335Z,7.68
2019-05-16T02:47:23.438Z,7.68
2019-05-16T02:49:50.616Z,7.68
2019-05-16T02:52:16.860Z,7.68
2019-05-16T02:54:42.885Z,7.67
2019-05-16T02:57:12.283Z,7.64
2019-05-16T02:59:41.269Z,7.64
2019-05-16T03:02:06.461Z,7.65
2019-05-16T03:04:33.432Z,7.63
2019-05-16T03:07:00.821Z,7.65
2019-05-16T03:09:27.070Z,7.62
2019-05-16T03:11:53.869Z,7.64
2019-05-16T03:14:21.191Z,7.62
2019-05-16T03:16:50.583Z,7.61
2019-05-16T03:19:17.168Z,7.62
2019-05-16T03:21:43.469Z,7.61
2019-05-16T03:24:11.284Z,7.60
2019-05-16T03:26:40.705Z,7.60
2019-05-16T03:29:05.509Z,7.60
2019-05-16T03:31:34.065Z,7.59
2019-05-16T03:34:06.865Z,7.62
2019-05-16T03:36:27.836Z,6.15
2019-05-16T03:38:54.045Z,7.60
2019-05-16T03:41:21.955Z,6.20
2019-05-16T03:43:50.741Z,6.28
2019-05-16T03:46:17.535Z,7.59
2019-05-16T03:48:44.101Z,7.58
2019-05-16T03:51:11.425Z,7.58
2019-05-16T03:53:40.263Z,7.59
2019-05-16T03:56:06.010Z,7.58
2019-05-16T03:58:33.339Z,7.57
2019-05-16T04:01:02.281Z,7.58
2019-05-16T04:03:30.009Z,7.57
2019-05-16T04:05:56.046Z,7.57
2019-05-16T04:08:25.011Z,7.56
2019-05-16T04:10:52.277Z,7.58
2019-05-16T04:13:21.302Z,7.57
2019-05-16T04:15:46.637Z,7.58
2019-05-16T04:18:13.393Z,7.58
2019-05-16T04:20:40.678Z,7.60
2019-05-16T04:23:07.151Z,7.59
2019-05-16T04:25:34.035Z,7.56
2019-05-16T04:28:01.002Z,7.57
2019-05-16T04:30:27.210Z,7.57
2019-05-16T04:32:53.490Z,7.60
2019-05-16T04:35:21.519Z,7.61
2019-05-16T04:37:52.587Z,7.64
2019-05-16T04:40:21.869Z,7.68
2019-05-16T04:42:47.308Z,7.67
2019-05-16T04:45:13.473Z,7.70
2019-05-16T04:47:41.288Z,7.70
2019-05-16T04:50:11.234Z,7.70
2019-05-16T04:52:36.179Z,7.72
2019-05-16T04:55:04.326Z,7.75
2019-05-16T04:57:31.250Z,7.78
2019-05-16T05:00:01.839Z,7.83
2019-05-16T05:02:26.008Z,7.85
2019-05-16T05:04:52.036Z,7.87
2019-05-16T05:07:20.713Z,7.86
2019-05-16T05:09:46.452Z,7.87
2019-05-16T05:12:12.556Z,7.89
2019-05-16T05:14:41.459Z,7.91
2019-05-16T05:17:06.827Z,7.94
2019-05-16T05:19:32.867Z,7.96
2019-05-16T05:22:01.307Z,8.00
2019-05-16T05:24:27.182Z,8.08
2019-05-16T05:26:53.361Z,8.15
2019-05-16T05:29:20.018Z,8.27
2019-05-16T05:31:47.083Z,8.37
2019-05-16T05:34:13.196Z,8.45
2019-05-16T05:36:40.863Z,8.50
2019-05-16T05:39:12.091Z,8.49
2019-05-16T05:41:35.671Z,8.47
2019-05-16T05:44:01.904Z,8.44
2019-05-16T05:46:31.422Z,8.44
2019-05-16T05:48:56.381Z,8.44
2019-05-16T05:51:22.537Z,8.42
2019-05-16T05:53:50.958Z,8.36
2019-05-16T05:56:19.628Z,8.31
2019-05-16T05:58:45.083Z,8.28
2019-05-16T06:01:11.664Z,8.21
2019-05-16T06:03:39.852Z,8.17
2019-05-16T06:06:06.136Z,8.17
2019-05-16T06:08:32.162Z,8.19
2019-05-16T06:11:00.567Z,8.21
2019-05-16T06:13:26.387Z,8.25
2019-05-16T06:15:52.816Z,8.28
2019-05-16T06:18:19.840Z,8.28
2019-05-16T06:20:46.365Z,8.22
2019-05-16T06:23:12.514Z,8.22
2019-05-16T06:25:40.587Z,8.21
2019-05-16T06:28:06.711Z,8.20
2019-05-16T06:30:33.158Z,8.23
2019-05-16T06:32:59.662Z,8.24
2019-05-16T06:35:25.748Z,8.29
2019-05-16T06:37:51.919Z,8.34
2019-05-16T06:40:20.311Z,8.39
2019-05-16T06:42:46.429Z,8.39
2019-05-16T06:45:13.012Z,8.43
2019-05-16T06:47:39.745Z,8.43
2019-05-16T06:50:06.228Z,8.41
2019-05-16T06:52:32.655Z,8.44
2019-05-16T06:55:00.719Z,8.48
2019-05-16T06:57:26.625Z,8.48
2019-05-16T06:59:53.138Z,8.48
2019-05-16T07:02:29.663Z,8.45
2019-05-16T07:04:47.414Z,8.48
2019-05-16T07:07:13.802Z,8.51
2019-05-16T07:09:41.802Z,8.46
2019-05-16T07:12:07.908Z,8.49
2019-05-16T07:14:36.123Z,8.53
2019-05-16T07:17:02.468Z,8.54
2019-05-16T07:19:30.104Z,8.54
2019-05-16T07:21:56.817Z,8.51
2019-05-16T07:24:22.956Z,8.51
2019-05-16T07:26:50.013Z,8.51
2019-05-16T07:29:16.947Z,8.48
2019-05-16T07:31:43.696Z,8.44
2019-05-16T07:34:10.892Z,8.43
2019-05-16T07:36:40.404Z,8.40
2019-05-16T07:39:05.963Z,8.37
2019-05-16T07:41:32.016Z,8.35
2019-05-16T07:44:00.720Z,8.29
2019-05-16T07:46:26.128Z,8.20
2019-05-16T07:48:52.266Z,8.14
2019-05-16T07:51:20.562Z,8.08
2019-05-16T07:53:46.466Z,7.98
2019-05-16T07:56:12.956Z,7.86
2019-05-16T07:58:40.785Z,7.82
2019-05-16T08:01:09.162Z,7.82
2019-05-16T08:03:35.080Z,7.78
2019-05-16T08:06:02.047Z,7.77
2019-05-16T08:08:31.008Z,7.82
2019-05-16T08:10:56.549Z,7.85
2019-05-16T08:13:22.784Z,7.89
2019-05-16T08:15:50.305Z,7.91
2019-05-16T08:18:17.806Z,7.90
2019-05-16T08:20:43.841Z,7.92
2019-05-16T08:23:11.040Z,7.97
2019-05-16T08:25:40.674Z,6.61
2019-05-16T08:28:06.070Z,8.03
2019-05-16T08:30:32.664Z,8.09
2019-05-16T08:33:02.214Z,8.09
2019-05-16T08:35:26.726Z,8.12
2019-05-16T08:37:53.385Z,8.16
2019-05-16T08:40:21.486Z,8.17
2019-05-16T08:42:47.745Z,8.19
2019-05-16T08:45:14.265Z,8.23
2019-05-16T08:47:42.662Z,8.27
2019-05-16T08:52:37.948Z,8.32
2019-05-16T08:55:06.139Z,8.32
2019-05-16T08:57:33.590Z,8.32
2019-05-16T09:00:01.331Z,7.17
2019-05-16T09:02:35.517Z,8.33
2019-05-16T09:04:55.892Z,8.34
2019-05-16T09:07:22.917Z,8.37
2019-05-16T09:10:34.703Z,8.35
2019-05-16T09:12:18.049Z,8.32
2019-05-16T09:14:47.304Z,8.32
2019-05-16T09:17:12.640Z,8.34
2019-05-16T09:18:38.331Z,8.33
2019-05-16T09:19:38.724Z,8.38
2019-05-16T09:22:07.361Z,8.37
2019-05-16T09:24:33.993Z,8.30
2019-05-16T09:27:00.139Z,8.24
2019-05-16T09:29:27.685Z,8.23
2019-05-16T09:32:08.089Z,6.86
2019-05-16T09:34:22.177Z,8.26
2019-05-16T09:36:48.840Z,8.30
2019-05-16T09:39:17.066Z,8.29
2019-05-16T09:41:53.395Z,8.27
2019-05-16T09:44:10.963Z,8.31
2019-05-16T09:46:37.738Z,8.33
2019-05-16T09:49:16.711Z,8.35
2019-05-16T09:51:33.589Z,8.36
2019-05-16T09:54:00.304Z,8.34
2019-05-16T09:56:27.130Z,8.31
2019-05-16T09:58:53.331Z,8.31
2019-05-16T10:01:19.331Z,8.29
2019-05-16T10:03:47.698Z,8.30
2019-05-16T10:06:13.822Z,8.28
2019-05-16T10:08:40.118Z,8.26
2019-05-16T10:11:06.697Z,8.20
2019-05-16T10:13:32.990Z,7.87
2019-05-16T10:15:59.005Z,8.19
2019-05-16T10:18:27.717Z,8.22
2019-05-16T10:20:53.697Z,8.23
2019-05-16T10:23:19.879Z,8.21
2019-05-16T10:25:48.071Z,8.18
2019-05-16T10:28:14.302Z,8.19
2019-05-16T10:30:40.503Z,8.17
2019-05-16T10:33:07.428Z,8.16
2019-05-16T10:35:33.436Z,8.18
2019-05-16T10:37:59.682Z,8.21
2019-05-16T10:40:27.398Z,8.25
2019-05-16T10:42:53.707Z,8.26
2019-05-16T10:45:20.769Z,8.26
2019-05-16T10:47:48.019Z,8.27
2019-05-16T10:50:16.670Z,8.27
2019-05-16T10:52:42.914Z,8.26
2019-05-16T10:55:09.304Z,8.25
2019-05-16T10:57:37.844Z,8.25
2019-05-16T11:00:16.102Z,8.23
2019-05-16T11:02:33.267Z,8.26
2019-05-16T11:05:13.936Z,8.30
2019-05-16T11:07:29.825Z,8.31
2019-05-16T11:10:02.923Z,8.37
2019-05-16T11:12:45.477Z,8.40
2019-05-16T11:14:54.434Z,8.38
2019-05-16T11:17:20.477Z,8.38
2019-05-16T11:19:47.684Z,8.40
2019-05-16T11:22:14.299Z,8.40
2019-05-16T11:24:40.559Z,8.39
2019-05-16T11:27:07.625Z,8.44
2019-05-16T11:29:33.852Z,8.55
2019-05-16T11:32:00.164Z,8.63
2019-05-16T11:34:26.781Z,8.66
2019-05-16T11:36:53.173Z,8.69
2019-05-16T11:39:21.058Z,8.68
2019-05-16T11:41:47.707Z,7.23
2019-05-16T11:44:17.424Z,8.69
2019-05-16T11:46:43.140Z,8.73
2019-05-16T11:49:09.686Z,8.75
2019-05-16T11:51:38.388Z,8.81
2019-05-16T11:54:04.196Z,8.90
2019-05-16T11:56:32.263Z,9.07
2019-05-16T11:58:59.047Z,9.14
2019-05-16T12:01:27.479Z,9.18
2019-05-16T12:03:57.548Z,9.17
2019-05-16T12:06:26.792Z,9.13
2019-05-16T12:08:52.580Z,9.11
2019-05-16T12:11:18.832Z,9.05
2019-05-16T12:13:47.423Z,9.01
2019-05-16T12:16:15.568Z,9.00
2019-05-16T12:18:41.650Z,8.96
2019-05-16T12:21:08.371Z,8.95
2019-05-16T12:23:37.032Z,8.98
2019-05-16T12:26:07.775Z,9.05
2019-05-16T12:28:34.020Z,9.13
2019-05-16T12:31:00.204Z,9.15
2019-05-16T12:33:27.434Z,9.15
2019-05-16T12:35:54.539Z,9.08
2019-05-16T12:38:20.891Z,8.99
2019-05-16T12:40:48.074Z,8.96
2019-05-16T12:43:14.906Z,8.94
2019-05-16T12:45:42.122Z,8.95
2019-05-16T12:48:10.320Z,8.99
2019-05-16T12:50:38.972Z,9.02
2019-05-16T12:53:04.438Z,9.05
2019-05-16T12:55:30.764Z,9.07
2019-05-16T12:58:12.337Z,9.07
2019-05-16T13:00:29.158Z,9.07
2019-05-16T13:02:57.689Z,7.70
2019-05-16T13:05:26.926Z,9.12
2019-05-16T13:07:52.880Z,9.13
2019-05-16T13:10:19.335Z,9.14
2019-05-16T13:12:45.447Z,9.12
2019-05-16T13:15:14.181Z,9.15
2019-05-16T13:17:41.597Z,9.17
2019-05-16T13:20:41.244Z,9.21
2019-05-16T13:23:14.454Z,9.26
2019-05-16T13:25:38.230Z,9.30
2019-05-16T13:28:08.209Z,9.35
2019-05-16T13:30:37.522Z,9.33
2019-05-16T13:33:03.147Z,9.30
2019-05-16T13:35:29.938Z,9.30
2019-05-16T13:37:57.953Z,9.29
2019-05-16T13:40:27.640Z,9.26
2019-05-16T13:42:54.027Z,9.20
2019-05-16T13:45:21.270Z,9.16
2019-05-16T13:47:49.071Z,9.17
2019-05-16T13:50:16.821Z,9.18
2019-05-16T13:52:43.360Z,9.19
2019-05-16T13:55:10.567Z,9.21
2019-05-16T13:57:37.336Z,9.24
2019-05-16T14:00:08.450Z,9.29
2019-05-16T14:02:37.648Z,9.32
2019-05-16T14:05:07.537Z,9.35
2019-05-16T14:07:33.780Z,9.40
2019-05-16T14:10:00.320Z,9.44
2019-05-16T14:12:29.275Z,9.52
2019-05-16T14:14:55.521Z,9.54
2019-05-16T14:17:22.080Z,9.45
2019-05-16T14:19:49.950Z,9.35
2019-05-16T14:22:17.560Z,8.00
2019-05-16T14:24:44.480Z,9.30
2019-05-16T14:27:11.184Z,9.26
2019-05-16T14:29:37.923Z,9.26
2019-05-16T14:32:09.527Z,9.26
2019-05-16T14:34:33.860Z,9.29
2019-05-16T14:37:03.088Z,9.34
2019-05-16T14:39:30.107Z,9.37
2019-05-16T14:41:56.899Z,9.41
2019-05-16T14:44:23.322Z,9.39
2019-05-16T14:46:50.014Z,9.38
2019-05-16T14:49:17.280Z,9.36
2019-05-16T14:51:43.945Z,9.37
2019-05-16T14:54:10.978Z,9.36
2019-05-16T14:56:38.681Z,9.39
2019-05-16T14:59:08.208Z,9.40
2019-05-16T15:01:37.406Z,9.46
2019-05-16T15:04:07.266Z,9.48
2019-05-16T15:06:49.376Z,9.41
2019-05-16T15:09:07.679Z,9.37
2019-05-16T15:11:34.272Z,9.35
2019-05-16T15:14:01.100Z,9.31
2019-05-16T15:16:28.514Z,9.30
2019-05-16T15:18:57.580Z,9.28
2019-05-16T15:21:25.968Z,9.29
2019-05-16T15:23:52.222Z,9.32
2019-05-16T15:26:18.834Z,9.32
2019-05-16T15:28:50.692Z,9.29
2019-05-16T15:31:20.147Z,9.25
2019-05-16T15:33:51.772Z,9.20
2019-05-16T15:36:20.657Z,9.20
2019-05-16T15:38:48.122Z,9.16
2019-05-16T15:41:16.498Z,9.14
2019-05-16T15:43:46.074Z,9.08
2019-05-16T15:46:12.683Z,9.07
2019-05-16T15:48:39.016Z,9.09
2019-05-16T15:51:08.742Z,9.11
2019-05-16T15:53:36.144Z,9.15
2019-05-16T15:56:02.067Z,7.83
2019-05-16T15:58:28.693Z,9.20
2019-05-16T16:01:01.613Z,9.23
2019-05-16T16:03:32.565Z,9.24
2019-05-16T16:06:07.620Z,9.26
2019-05-16T16:08:37.758Z,9.29
2019-05-16T16:11:08.983Z,9.31
2019-05-16T16:13:37.814Z,9.32
2019-05-16T16:16:10.131Z,9.29
2019-05-16T16:18:37.447Z,9.29
2019-05-16T16:21:07.855Z,7.94
2019-05-16T16:23:41.609Z,9.28
2019-05-16T16:26:08.939Z,9.29
2019-05-16T16:28:38.938Z,7.90
2019-05-16T16:31:09.603Z,9.34
2019-05-16T16:33:37.527Z,9.37
2019-05-16T16:36:04.743Z,9.41
2019-05-16T16:38:32.232Z,9.44
2019-05-16T16:40:59.263Z,9.41
2019-05-16T16:43:26.855Z,9.40
2019-05-16T16:46:06.100Z,9.38
2019-05-16T16:48:22.453Z,9.35
2019-05-16T16:50:49.343Z,9.36
2019-05-16T16:53:17.609Z,9.40
2019-05-16T16:55:47.430Z,9.41
2019-05-16T16:58:17.534Z,9.39
2019-05-16T17:00:47.491Z,9.40
2019-05-16T17:03:16.677Z,9.42
2019-05-16T17:05:46.585Z,9.39
2019-05-16T17:08:13.792Z,9.36
2019-05-16T17:10:42.962Z,9.33
2019-05-16T17:13:09.496Z,9.26
2019-05-16T17:15:42.261Z,9.23
2019-05-16T17:18:11.001Z,9.20
2019-05-16T17:20:38.731Z,9.22
2019-05-16T17:23:07.595Z,9.23
2019-05-16T17:25:36.699Z,9.25
2019-05-16T17:28:07.333Z,9.26
2019-05-16T17:30:36.838Z,9.23
2019-05-16T17:33:07.488Z,9.27
2019-05-16T17:35:32.989Z,9.30
2019-05-16T17:37:59.793Z,9.35
2019-05-16T17:40:29.387Z,9.38
2019-05-16T17:42:56.914Z,9.41
2019-05-16T17:45:23.398Z,9.44
2019-05-16T17:47:50.002Z,9.46
2019-05-16T17:50:17.281Z,9.47
2019-05-16T17:52:43.595Z,9.49
2019-05-16T17:55:10.084Z,9.46
2019-05-16T17:57:37.267Z,9.47
2019-05-16T18:00:07.062Z,9.47
2019-05-16T18:02:33.501Z,9.48
2019-05-16T18:04:59.602Z,9.50
2019-05-16T18:07:25.778Z,9.52
2019-05-16T18:09:51.916Z,9.50
2019-05-16T18:12:18.574Z,9.51
2019-05-16T18:14:48.374Z,9.50
2019-05-16T18:17:13.638Z,9.52
2019-05-16T18:19:39.783Z,9.50
2019-05-16T18:22:06.685Z,9.51
2019-05-16T18:24:36.957Z,9.49
2019-05-16T18:27:06.504Z,9.48
2019-05-16T18:29:32.874Z,9.47
2019-05-16T18:32:02.342Z,9.48
2019-05-16T18:34:30.117Z,9.49
2019-05-16T18:36:57.286Z,9.50
2019-05-16T18:39:24.154Z,9.50
2019-05-16T18:41:50.403Z,9.49
2019-05-16T18:44:16.836Z,9.46
2019-05-16T18:46:43.031Z,9.44
2019-05-16T18:49:09.299Z,9.44
2019-05-16T18:51:37.003Z,9.43
2019-05-16T18:54:03.732Z,9.41
2019-05-16T18:56:29.801Z,9.39
2019-05-16T18:58:57.269Z,9.37
2019-05-16T19:01:23.582Z,9.38
2019-05-16T19:03:49.839Z,9.11
2019-05-16T19:06:16.988Z,9.41
2019-05-16T19:08:43.861Z,9.42
2019-05-16T19:11:09.963Z,9.41
2019-05-16T19:13:36.874Z,9.41
2019-05-16T19:16:03.159Z,9.41
2019-05-16T19:18:29.277Z,9.37
2019-05-16T19:20:57.112Z,8.03
2019-05-16T19:23:24.148Z,9.36
2019-05-16T19:25:50.359Z,9.38
2019-05-16T19:28:16.484Z,9.37
2019-05-16T19:30:43.077Z,9.37
2019-05-16T19:33:09.230Z,9.38
2019-05-16T19:35:35.568Z,9.40
2019-05-16T19:38:02.259Z,9.39
2019-05-16T19:40:28.855Z,9.39
2019-05-16T19:42:56.594Z,9.38
2019-05-16T19:45:23.687Z,9.36
2019-05-16T19:47:49.798Z,9.35
2019-05-16T19:50:17.195Z,9.35
2019-05-16T19:52:43.677Z,9.33
2019-05-16T19:55:10.120Z,9.32
2019-05-16T19:57:37.499Z,9.30
2019-05-16T20:00:08.640Z,9.28
2019-05-16T20:02:36.697Z,9.27
2019-05-16T20:05:06.468Z,8.96
2019-05-16T20:07:32.645Z,6.92
2019-05-16T20:09:58.681Z,9.25
2019-05-16T20:12:26.293Z,9.26
2019-05-16T20:15:06.859Z,9.26
2019-05-16T20:17:20.930Z,9.27
2019-05-16T20:19:47.151Z,9.27
2019-05-16T20:22:13.317Z,9.25
2019-05-16T20:24:39.796Z,9.25
2019-05-16T20:27:08.117Z,9.23
2019-05-16T20:29:33.974Z,9.23
2019-05-16T20:32:00.860Z,9.22
2019-05-16T20:34:27.015Z,9.23
2019-05-16T20:36:53.218Z,9.24
2019-05-16T20:39:19.875Z,9.26
2019-05-16T20:41:47.521Z,9.28
2019-05-16T20:44:14.018Z,9.28
2019-05-16T20:46:41.334Z,9.27
2019-05-16T20:49:07.851Z,9.27
2019-05-16T20:51:33.953Z,9.26
2019-05-16T20:54:01.981Z,7.91
2019-05-16T20:56:30.057Z,9.25
2019-05-16T20:58:59.409Z,9.26
2019-05-16T21:01:27.020Z,9.23
2019-05-16T21:03:53.589Z,9.22
2019-05-16T21:06:21.542Z,9.21
2019-05-16T21:08:49.759Z,9.21
2019-05-16T21:11:17.630Z,9.20
2019-05-16T21:13:44.355Z,9.21
2019-05-16T21:16:11.545Z,9.21
2019-05-16T21:18:37.930Z,9.21
2019-05-16T21:21:04.448Z,9.22
2019-05-16T21:23:31.567Z,9.24
2019-05-16T21:25:57.665Z,9.22
2019-05-16T21:28:26.293Z,9.23
2019-05-16T21:30:52.351Z,9.24
2019-05-16T21:33:18.805Z,9.23
2019-05-16T21:35:46.980Z,9.23
2019-05-16T21:38:13.330Z,9.23
2019-05-16T21:40:39.369Z,9.24
2019-05-16T21:43:07.425Z,9.23
2019-05-16T21:45:33.889Z,9.23
2019-05-16T21:47:59.953Z,9.22
2019-05-16T21:50:27.533Z,9.21
2019-05-16T21:52:56.322Z,9.21
2019-05-16T21:55:21.992Z,8.98
2019-05-16T21:57:48.125Z,9.20
2019-05-16T22:00:26.567Z,9.18
2019-05-16T22:02:53.288Z,8.71
2019-05-16T22:05:20.119Z,9.08
2019-05-16T22:07:47.390Z,9.02
2019-05-16T22:10:13.705Z,8.70
2019-05-16T22:12:39.839Z,8.94
2019-05-16T22:15:06.912Z,8.93
2019-05-16T22:17:33.461Z,8.93
2019-05-16T22:19:59.922Z,8.93
2019-05-16T22:22:29.786Z,8.93
2019-05-16T22:24:54.129Z,8.93
2019-05-16T22:27:20.379Z,8.65
2019-05-16T22:29:46.411Z,8.94
2019-05-16T22:32:12.605Z,8.94
2019-05-16T22:34:39.148Z,8.95
2019-05-16T22:37:06.557Z,8.95
2019-05-16T22:39:32.702Z,8.95
2019-05-16T22:41:59.233Z,8.94
2019-05-16T22:44:27.102Z,8.95
2019-05-16T22:46:53.239Z,8.95
2019-05-16T22:49:19.221Z,8.94
2019-05-16T22:51:45.408Z,8.94
2019-05-16T22:54:11.749Z,8.92
2019-05-16T22:56:37.824Z,8.91
2019-05-16T22:59:03.845Z,8.90
2019-05-16T23:01:30.365Z,8.88
2019-05-16T23:03:56.740Z,8.88
2019-05-16T23:06:22.876Z,8.90
2019-05-16T23:08:49.307Z,8.89
2019-05-16T23:11:16.326Z,8.89
2019-05-16T23:13:42.665Z,8.88
2019-05-16T23:16:09.133Z,8.87
2019-05-16T23:18:37.282Z,8.57
2019-05-16T23:21:03.289Z,8.86
2019-05-16T23:23:29.296Z,8.85
2019-05-16T23:25:56.908Z,8.84
2019-05-16T23:28:23.451Z,8.84
2019-05-16T23:30:49.633Z,8.83
2019-05-16T23:33:15.683Z,8.82
2019-05-16T23:35:42.978Z,8.82
2019-05-16T23:38:18.502Z,8.81
2019-05-16T23:40:37.622Z,8.82
2019-05-16T23:43:03.751Z,8.79
2019-05-16T23:45:29.792Z,8.77
2019-05-16T23:47:56.420Z,8.77
2019-05-16T23:50:22.766Z,8.76
2019-05-16T23:52:48.719Z,8.76
2019-05-16T23:55:17.513Z,8.75
2019-05-16T23:57:43.650Z,8.74
